createdAt,value
2019-01-21T00:00:50.086Z,3.77
2019-01-21T00:03:17.390Z,4.27
2019-01-21T00:05:44.658Z,4.37
2019-01-21T00:08:11.824Z,3.70
2019-01-21T00:10:39.054Z,3.17
2019-01-21T00:13:06.276Z,3.90
2019-01-21T00:15:33.525Z,3.73
2019-01-21T00:18:00.766Z,3.93
2019-01-21T00:20:28.009Z,4.10
2019-01-21T00:22:55.200Z,3.83
2019-01-21T00:25:22.371Z,4.13
2019-01-21T00:27:49.676Z,3.10
2019-01-21T00:30:16.847Z,4.90
2019-01-21T00:32:44.041Z,6.60
2019-01-21T00:35:11.362Z,4.50
2019-01-21T00:37:38.515Z,3.30
2019-01-21T00:40:06.076Z,6.10
2019-01-21T00:42:33.282Z,11.07
2019-01-21T00:45:00.487Z,8.00
2019-01-21T00:47:30.044Z,5.67
2019-01-21T00:49:57.899Z,14.30
2019-01-21T00:52:25.213Z,5.87
2019-01-21T00:54:52.863Z,13.00
2019-01-21T00:57:20.068Z,18.57
2019-01-21T00:59:47.257Z,4.63
2019-01-21T01:02:15.043Z,5.53
2019-01-21T01:04:42.389Z,12.63
2019-01-21T01:07:09.827Z,5.13
2019-01-21T01:09:37.301Z,4.53
2019-01-21T01:12:04.653Z,4.23
2019-01-21T01:14:31.968Z,9.33
2019-01-21T01:16:59.265Z,9.23
2019-01-21T01:19:26.729Z,5.90
2019-01-21T01:21:53.978Z,4.07
2019-01-21T01:24:21.258Z,9.87
2019-01-21T01:26:48.683Z,8.97
2019-01-21T01:29:15.866Z,6.80
2019-01-21T01:31:43.311Z,6.13
2019-01-21T01:34:10.618Z,8.83
2019-01-21T01:36:37.955Z,5.63
2019-01-21T01:39:06.343Z,5.23
2019-01-21T01:41:33.592Z,3.97
2019-01-21T01:44:00.806Z,4.53
2019-01-21T01:46:28.020Z,6.67
2019-01-21T01:48:55.627Z,4.40
2019-01-21T01:51:22.872Z,4.33
2019-01-21T01:53:50.146Z,6.93
2019-01-21T01:56:17.385Z,2.97
2019-01-21T01:58:44.608Z,3.20
2019-01-21T02:01:11.844Z,5.83
2019-01-21T02:03:39.420Z,4.07
2019-01-21T02:06:06.647Z,5.50
2019-01-21T02:08:33.838Z,4.13
2019-01-21T02:11:01.108Z,4.80
2019-01-21T02:13:28.351Z,5.37
2019-01-21T02:15:55.672Z,4.20
2019-01-21T02:18:23.375Z,4.60
2019-01-21T02:20:50.541Z,4.17
2019-01-21T02:23:17.773Z,5.23
2019-01-21T02:25:50.145Z,4.57
2019-01-21T02:28:37.934Z,4.97
2019-01-21T02:31:53.276Z,4.30
2019-01-21T02:34:38.244Z,7.10
2019-01-21T02:37:53.209Z,3.37
2019-01-21T02:40:51.694Z,3.30
2019-01-21T02:44:15.833Z,3.47
2019-01-21T02:47:27.682Z,3.20
2019-01-21T02:50:19.922Z,12.83
2019-01-21T02:53:12.478Z,4.13
2019-01-21T02:56:07.657Z,3.20
2019-01-21T02:58:45.085Z,3.33
2019-01-21T03:01:37.380Z,3.17
2019-01-21T03:04:22.465Z,8.30
2019-01-21T03:07:15.034Z,4.60
2019-01-21T03:10:00.051Z,4.00
2019-01-21T03:12:40.469Z,3.50
2019-01-21T03:15:14.809Z,4.70
2019-01-21T03:18:16.142Z,4.53
2019-01-21T03:21:08.548Z,4.60
2019-01-21T03:24:00.837Z,3.83
2019-01-21T03:26:55.959Z,4.03
2019-01-21T03:29:45.213Z,5.37
2019-01-21T03:32:30.386Z,4.83
2019-01-21T03:35:05.703Z,3.00
2019-01-21T03:37:50.767Z,3.77
2019-01-21T03:40:37.021Z,5.20
2019-01-21T03:43:23.320Z,3.10
2019-01-21T03:46:18.973Z,4.73
2019-01-21T03:48:51.749Z,2.83
2019-01-21T03:51:38.294Z,4.60
2019-01-21T03:54:15.716Z,4.93
2019-01-21T03:57:20.067Z,7.27
2019-01-21T03:59:56.741Z,5.90
2019-01-21T04:02:49.084Z,3.00
2019-01-21T04:05:18.967Z,6.53
2019-01-21T04:07:50.588Z,6.80
2019-01-21T04:10:33.444Z,4.20
2019-01-21T04:13:35.256Z,4.87
2019-01-21T04:16:09.575Z,8.03
2019-01-21T04:18:42.530Z,3.03
2019-01-21T04:21:43.904Z,3.17
2019-01-21T04:24:36.324Z,11.93
2019-01-21T04:27:09.647Z,4.60
2019-01-21T04:29:49.222Z,5.73
2019-01-21T04:32:22.472Z,3.83
2019-01-21T04:35:14.914Z,4.40
2019-01-21T04:38:07.427Z,3.47
2019-01-21T04:40:37.806Z,5.30
2019-01-21T04:43:11.056Z,4.27
2019-01-21T04:45:44.810Z,4.67
2019-01-21T04:48:40.189Z,4.13
2019-01-21T04:51:29.185Z,4.57
2019-01-21T04:54:14.308Z,3.93
2019-01-21T04:57:09.880Z,4.10
2019-01-21T05:00:11.542Z,4.50
2019-01-21T05:03:07.110Z,3.97
2019-01-21T05:06:02.493Z,3.67
2019-01-21T05:08:47.554Z,3.60
2019-01-21T05:11:31.551Z,5.30
2019-01-21T05:14:10.710Z,4.30
2019-01-21T05:16:44.696Z,7.03
2019-01-21T05:19:33.711Z,5.37
2019-01-21T05:22:22.946Z,3.47
2019-01-21T05:25:02.920Z,7.40
2019-01-21T05:27:39.573Z,4.03
2019-01-21T05:30:25.846Z,3.50
2019-01-21T05:33:11.019Z,6.63
2019-01-21T05:36:10.120Z,3.97
2019-01-21T05:38:59.281Z,5.90
2019-01-21T05:41:51.435Z,5.30
2019-01-21T05:44:36.518Z,4.00
2019-01-21T05:47:28.832Z,4.60
2019-01-21T05:50:13.978Z,6.10
2019-01-21T05:53:18.714Z,5.47
2019-01-21T05:56:00.208Z,3.63
2019-01-21T05:58:49.639Z,6.50
2019-01-21T06:01:36.382Z,3.90
2019-01-21T06:04:06.038Z,7.93
2019-01-21T06:07:01.523Z,4.33
2019-01-21T06:09:47.841Z,4.27
2019-01-21T06:12:40.398Z,6.97
2019-01-21T06:15:29.169Z,3.73
2019-01-21T06:18:21.373Z,4.90
2019-01-21T06:21:10.976Z,4.27
2019-01-21T06:23:59.963Z,8.90
2019-01-21T06:26:35.982Z,4.20
2019-01-21T06:29:28.346Z,4.00
2019-01-21T06:32:13.440Z,6.93
2019-01-21T06:34:53.263Z,6.63
2019-01-21T06:37:27.319Z,7.17
2019-01-21T06:40:29.080Z,27.73
2019-01-21T06:43:14.962Z,24.33
2019-01-21T06:46:06.971Z,18.33
2019-01-21T06:48:56.017Z,6.03
2019-01-21T06:51:41.206Z,8.70
2019-01-21T06:54:36.848Z,13.57
2019-01-21T06:57:41.202Z,15.83
2019-01-21T07:00:20.074Z,10.17
2019-01-21T07:03:05.027Z,7.60
2019-01-21T07:05:49.920Z,12.93
2019-01-21T07:08:22.993Z,23.27
2019-01-21T07:11:12.250Z,17.03
2019-01-21T07:13:58.553Z,15.30
2019-01-21T07:17:03.010Z,17.00
2019-01-21T07:19:46.221Z,18.17
2019-01-21T07:22:32.342Z,7.40
2019-01-21T07:25:37.097Z,18.30
2019-01-21T07:28:13.477Z,10.43
2019-01-21T07:30:47.885Z,22.97
2019-01-21T07:33:37.321Z,18.30
2019-01-21T07:36:14.288Z,18.43
2019-01-21T07:38:47.932Z,13.57
2019-01-21T07:41:33.685Z,17.70
2019-01-21T07:44:20.368Z,16.10
2019-01-21T07:47:05.347Z,12.40
2019-01-21T07:49:50.202Z,19.27
2019-01-21T07:52:31.233Z,10.03
2019-01-21T07:55:06.310Z,18.40
2019-01-21T07:57:46.050Z,10.53
2019-01-21T08:00:24.067Z,17.93
2019-01-21T08:03:01.998Z,15.57
2019-01-21T08:05:41.048Z,12.00
2019-01-21T08:08:29.445Z,11.93
2019-01-21T08:11:17.405Z,23.10
2019-01-21T08:14:15.776Z,12.07
2019-01-21T08:17:05.332Z,12.43
2019-01-21T08:19:46.798Z,11.03
2019-01-21T08:22:22.664Z,11.30
2019-01-21T08:25:08.904Z,15.93
2019-01-21T08:28:07.311Z,7.77
2019-01-21T08:30:52.474Z,20.63
2019-01-21T08:33:37.596Z,9.40
2019-01-21T08:36:22.759Z,12.30
2019-01-21T08:39:11.974Z,7.17
2019-01-21T08:41:51.734Z,9.87
2019-01-21T08:44:44.004Z,9.83
2019-01-21T08:47:23.632Z,9.93
2019-01-21T08:50:08.982Z,13.17
2019-01-21T08:52:42.992Z,8.70
2019-01-21T08:55:29.264Z,8.73
2019-01-21T08:58:18.296Z,13.83
2019-01-21T09:01:10.416Z,9.10
2019-01-21T09:04:11.803Z,9.63
2019-01-21T09:06:42.453Z,9.00
2019-01-21T09:09:21.186Z,10.90
2019-01-21T09:12:07.406Z,15.67
2019-01-21T09:14:55.324Z,8.80
2019-01-21T09:17:44.628Z,9.10
2019-01-21T09:20:22.533Z,8.17
2019-01-21T09:23:03.747Z,13.87
2019-01-21T09:25:37.276Z,9.40
2019-01-21T09:28:26.400Z,11.10
2019-01-21T09:31:07.706Z,8.40
2019-01-21T09:33:56.810Z,9.33
2019-01-21T09:36:42.150Z,9.33
2019-01-21T09:39:13.340Z,14.33
2019-01-21T09:41:46.767Z,9.50
2019-01-21T09:44:36.217Z,7.37
2019-01-21T09:47:02.555Z,7.17
2019-01-21T09:49:30.327Z,7.10
2019-01-21T09:52:11.500Z,8.33
2019-01-21T09:54:38.954Z,7.40
2019-01-21T09:57:06.404Z,7.73
2019-01-21T09:59:33.224Z,9.90
2019-01-21T10:02:00.407Z,7.20
2019-01-21T10:04:33.869Z,6.77
2019-01-21T10:07:18.738Z,10.80
2019-01-21T10:09:55.829Z,7.60
2019-01-21T10:12:48.250Z,6.73
2019-01-21T10:15:18.334Z,7.93
2019-01-21T10:18:16.991Z,9.70
2019-01-21T10:21:01.955Z,7.37
2019-01-21T10:24:03.567Z,9.87
2019-01-21T10:26:48.765Z,11.13
2019-01-21T10:29:22.177Z,9.83
2019-01-21T10:32:09.771Z,9.50
2019-01-21T10:35:02.955Z,7.70
2019-01-21T10:37:44.918Z,10.07
2019-01-21T10:40:33.822Z,7.83
2019-01-21T10:43:08.328Z,8.63
2019-01-21T10:46:07.165Z,9.87
2019-01-21T10:49:02.302Z,7.97
2019-01-21T10:51:51.591Z,7.23
2019-01-21T10:54:26.041Z,8.80
2019-01-21T10:57:18.393Z,7.80
2019-01-21T11:00:13.867Z,7.40
2019-01-21T11:03:03.145Z,8.50
2019-01-21T11:05:38.198Z,7.67
2019-01-21T11:08:19.263Z,8.93
2019-01-21T11:11:07.762Z,9.77
2019-01-21T11:14:12.590Z,7.40
2019-01-21T11:17:08.087Z,15.10
2019-01-21T11:19:46.129Z,17.23
2019-01-21T11:22:34.786Z,18.30
2019-01-21T11:25:19.914Z,34.37
2019-01-21T11:28:04.932Z,37.47
2019-01-21T11:31:03.278Z,23.60
2019-01-21T11:33:45.574Z,21.63
2019-01-21T11:36:21.497Z,15.10
2019-01-21T11:39:19.925Z,15.83
2019-01-21T11:42:15.263Z,18.40
2019-01-21T11:44:55.661Z,20.63
2019-01-21T11:47:40.866Z,21.80
2019-01-21T11:50:31.524Z,29.43
2019-01-21T11:53:23.675Z,21.40
2019-01-21T11:55:54.144Z,20.73
2019-01-21T11:58:43.328Z,18.90
2019-01-21T12:01:29.553Z,20.80
2019-01-21T12:04:21.286Z,24.30
2019-01-21T12:07:10.289Z,19.57
2019-01-21T12:09:55.554Z,20.00
2019-01-21T12:12:31.258Z,21.37
2019-01-21T12:15:06.656Z,13.00
2019-01-21T12:17:51.740Z,28.57
2019-01-21T12:20:38.002Z,21.37
2019-01-21T12:23:17.791Z,29.67
2019-01-21T12:25:47.939Z,25.37
2019-01-21T12:28:20.793Z,20.10
2019-01-21T12:31:07.047Z,23.63
2019-01-21T12:34:02.420Z,25.30
2019-01-21T12:36:34.667Z,19.60
2019-01-21T12:39:30.054Z,14.77
2019-01-21T12:42:28.559Z,23.23
2019-01-21T12:45:21.090Z,14.67
2019-01-21T12:48:13.644Z,23.23
2019-01-21T12:50:58.896Z,19.93
2019-01-21T12:53:30.374Z,18.80
2019-01-21T12:56:20.039Z,17.30
2019-01-21T12:58:53.691Z,20.93
2019-01-21T13:01:39.930Z,22.00
2019-01-21T13:04:15.931Z,11.43
2019-01-21T13:06:45.433Z,12.73
2019-01-21T13:09:31.707Z,13.90
2019-01-21T13:12:23.800Z,13.90
2019-01-21T13:26:47.555Z,13.97
2019-01-21T13:29:22.881Z,22.67
2019-01-21T13:32:12.287Z,10.13
2019-01-21T13:34:58.467Z,15.27
2019-01-21T13:37:44.933Z,19.03
2019-01-21T13:40:33.959Z,14.03
2019-01-21T13:43:23.463Z,9.37
2019-01-21T13:46:18.717Z,11.80
2019-01-21T13:49:07.690Z,14.23
2019-01-21T13:52:09.375Z,17.20
2019-01-21T13:54:39.339Z,10.90
2019-01-21T13:57:37.483Z,12.77
2019-01-21T14:00:13.772Z,19.03
2019-01-21T14:02:46.137Z,14.73
2019-01-21T14:05:32.437Z,25.23
2019-01-21T14:08:24.698Z,18.67
2019-01-21T14:11:10.991Z,12.50
2019-01-21T14:13:49.519Z,27.07
2019-01-21T14:16:25.528Z,24.57
2019-01-21T14:19:02.009Z,14.20
2019-01-21T14:21:51.322Z,15.50
2019-01-21T14:24:25.787Z,17.53
2019-01-21T14:27:02.714Z,13.23
2019-01-21T14:29:32.707Z,9.53
2019-01-21T14:32:21.758Z,12.53
2019-01-21T14:35:07.042Z,15.57
2019-01-21T14:37:48.332Z,11.43
2019-01-21T14:40:24.363Z,14.53
2019-01-21T14:43:13.606Z,9.60
2019-01-21T14:45:44.787Z,17.00
2019-01-21T14:48:40.139Z,12.27
2019-01-21T14:51:34.898Z,12.37
2019-01-21T14:54:21.171Z,12.03
2019-01-21T14:57:05.054Z,12.80
2019-01-21T14:59:36.469Z,12.33
2019-01-21T15:02:22.748Z,11.30
2019-01-21T15:05:21.632Z,13.03
2019-01-21T15:08:06.700Z,9.67
2019-01-21T15:10:52.729Z,7.97
2019-01-21T15:13:42.097Z,8.37
2019-01-21T15:16:21.562Z,8.70
2019-01-21T15:18:54.435Z,10.43
2019-01-21T15:21:43.410Z,10.33
2019-01-21T15:24:15.397Z,14.53
2019-01-21T15:27:13.644Z,9.37
2019-01-21T15:29:45.877Z,11.73
2019-01-21T15:32:18.582Z,11.77
2019-01-21T15:34:57.396Z,7.57
2019-01-21T15:37:55.798Z,7.63
2019-01-21T15:40:32.938Z,11.43
2019-01-21T15:43:04.605Z,9.37
2019-01-21T15:45:39.424Z,9.93
2019-01-21T15:48:28.310Z,9.37
2019-01-21T15:51:04.843Z,10.00
2019-01-21T15:53:53.058Z,13.30
2019-01-21T15:56:30.240Z,7.93
2019-01-21T15:59:08.138Z,8.97
2019-01-21T16:02:03.503Z,11.23
2019-01-21T16:04:34.550Z,14.67
2019-01-21T16:07:21.076Z,6.47
2019-01-21T16:10:13.582Z,8.47
2019-01-21T16:13:06.234Z,11.27
2019-01-21T16:15:52.487Z,8.37
2019-01-21T16:18:38.748Z,8.80
2019-01-21T16:21:19.809Z,8.60
2019-01-21T16:24:08.815Z,9.30
2019-01-21T16:26:50.272Z,7.53
2019-01-21T16:29:54.758Z,7.90
2019-01-21T16:32:32.530Z,7.83
2019-01-21T16:35:21.603Z,8.53
2019-01-21T16:38:19.898Z,8.97
2019-01-21T16:41:04.769Z,16.33
2019-01-21T16:43:31.607Z,8.67
2019-01-21T16:45:58.425Z,9.40
2019-01-21T16:48:25.217Z,7.70
2019-01-21T16:50:52.030Z,9.17
2019-01-21T16:53:18.835Z,8.37
2019-01-21T16:55:45.680Z,6.07
2019-01-21T16:58:12.464Z,8.53
2019-01-21T17:00:39.234Z,11.80
2019-01-21T17:03:06.272Z,7.10
2019-01-21T17:05:33.039Z,6.70
2019-01-21T17:08:00.763Z,9.60
2019-01-21T17:10:27.822Z,10.70
2019-01-21T17:12:54.696Z,10.40
2019-01-21T17:15:21.599Z,14.90
2019-01-21T17:17:48.450Z,12.20
2019-01-21T17:20:16.782Z,13.30
2019-01-21T17:22:43.761Z,13.60
2019-01-21T17:25:10.658Z,13.87
2019-01-21T17:27:37.546Z,6.60
2019-01-21T17:30:05.764Z,11.93
2019-01-21T17:32:32.665Z,10.47
2019-01-21T17:34:59.625Z,9.47
2019-01-21T17:37:26.495Z,9.50
2019-01-21T17:39:53.264Z,15.00
2019-01-21T17:42:20.079Z,9.53
2019-01-21T17:44:46.910Z,9.73
2019-01-21T17:47:13.754Z,6.50
2019-01-21T17:49:40.566Z,8.63
2019-01-21T17:52:07.504Z,8.97
2019-01-21T17:54:35.295Z,9.10
2019-01-21T17:57:02.936Z,8.73
2019-01-21T17:59:29.871Z,11.60
2019-01-21T18:01:56.719Z,7.83
2019-01-21T18:04:23.503Z,14.03
2019-01-21T18:06:50.450Z,16.33
2019-01-21T18:09:17.277Z,7.70
2019-01-21T18:11:44.161Z,9.70
2019-01-21T18:14:10.962Z,11.93
2019-01-21T18:16:37.863Z,7.20
2019-01-21T18:19:04.648Z,12.03
2019-01-21T18:21:31.408Z,10.07
2019-01-21T18:23:58.214Z,9.00
2019-01-21T18:26:25.047Z,11.33
2019-01-21T18:28:51.827Z,12.13
2019-01-21T18:31:18.703Z,8.60
2019-01-21T18:33:45.518Z,8.23
2019-01-21T18:36:12.301Z,11.57
2019-01-21T18:38:39.082Z,18.03
2019-01-21T18:41:05.910Z,10.83
2019-01-21T18:43:32.735Z,10.37
2019-01-21T18:45:59.571Z,10.00
2019-01-21T18:48:26.362Z,9.17
2019-01-21T18:50:53.154Z,10.67
2019-01-21T18:53:19.957Z,8.70
2019-01-21T18:55:46.768Z,7.13
2019-01-21T18:58:13.572Z,6.83
2019-01-21T19:00:40.443Z,8.30
2019-01-21T19:03:07.286Z,7.47
2019-01-21T19:05:34.110Z,6.33
2019-01-21T19:08:00.939Z,7.53
2019-01-21T19:10:27.772Z,8.37
2019-01-21T19:12:54.559Z,18.43
2019-01-21T19:15:22.652Z,8.77
2019-01-21T19:17:49.460Z,6.87
2019-01-21T19:20:16.252Z,6.23
2019-01-21T19:22:43.111Z,17.73
2019-01-21T19:25:09.941Z,18.80
2019-01-21T19:27:36.693Z,12.63
2019-01-21T19:30:04.232Z,15.07
2019-01-21T19:32:31.120Z,10.90
2019-01-21T19:34:58.315Z,11.60
2019-01-21T19:37:25.186Z,9.07
2019-01-21T19:39:52.138Z,8.20
2019-01-21T19:42:18.941Z,13.13
2019-01-21T19:44:45.753Z,7.27
2019-01-21T19:47:12.593Z,11.57
2019-01-21T19:49:39.468Z,9.40
2019-01-21T19:52:06.316Z,13.70
2019-01-21T19:54:33.371Z,13.60
2019-01-21T19:57:00.173Z,18.23
2019-01-21T19:59:27.964Z,10.47
2019-01-21T20:01:54.807Z,16.93
2019-01-21T20:04:21.613Z,17.63
2019-01-21T20:06:48.407Z,13.53
2019-01-21T20:09:15.201Z,9.30
2019-01-21T20:11:42.117Z,12.60
2019-01-21T20:14:08.915Z,6.50
2019-01-21T20:16:35.684Z,11.83
2019-01-21T20:19:02.479Z,11.80
2019-01-21T20:21:29.320Z,23.53
2019-01-21T20:23:56.128Z,6.23
2019-01-21T20:26:23.064Z,15.30
2019-01-21T20:28:50.011Z,21.83
2019-01-21T20:31:16.777Z,9.23
2019-01-21T20:33:43.656Z,7.20
2019-01-21T20:36:10.449Z,17.70
2019-01-21T20:38:37.287Z,8.27
2019-01-21T20:41:04.209Z,10.13
2019-01-21T20:43:30.983Z,9.60
2019-01-21T20:45:57.768Z,11.53
2019-01-21T20:48:24.609Z,10.57
2019-01-21T20:50:51.529Z,6.80
2019-01-21T20:53:18.343Z,14.30
2019-01-21T20:55:45.147Z,9.43
2019-01-21T20:58:12.003Z,6.20
2019-01-21T21:00:38.794Z,7.50
2019-01-21T21:03:05.607Z,13.07
2019-01-21T21:05:32.561Z,9.80
2019-01-21T21:07:59.447Z,6.80
2019-01-21T21:10:26.339Z,10.80
2019-01-21T21:12:53.536Z,9.97
2019-01-21T21:15:21.745Z,7.73
2019-01-21T21:17:48.875Z,7.80
2019-01-21T21:20:15.885Z,6.10
2019-01-21T21:22:42.779Z,9.50
2019-01-21T21:25:10.487Z,7.77
2019-01-21T21:27:37.317Z,6.30
2019-01-21T21:30:05.437Z,12.80
2019-01-21T21:32:32.320Z,8.20
2019-01-21T21:34:59.493Z,6.00
2019-01-21T21:37:26.519Z,9.70
2019-01-21T21:39:54.415Z,8.47
2019-01-21T21:42:21.435Z,7.03
2019-01-21T21:44:48.386Z,13.90
2019-01-21T21:47:15.318Z,7.70
2019-01-21T21:49:42.210Z,8.57
2019-01-21T21:52:09.092Z,6.70
2019-01-21T21:54:36.343Z,8.93
2019-01-21T21:57:03.942Z,9.20
2019-01-21T21:59:30.849Z,7.60
2019-01-21T22:02:00.770Z,6.93
2019-01-21T22:04:27.667Z,15.77
2019-01-21T22:06:54.532Z,11.40
2019-01-21T22:09:21.879Z,9.77
2019-01-21T22:11:48.780Z,5.07
2019-01-21T22:14:15.664Z,8.70
2019-01-21T22:16:42.572Z,9.93
2019-01-21T22:19:09.463Z,6.63
2019-01-21T22:21:36.282Z,6.33
2019-01-21T22:24:03.122Z,8.10
2019-01-21T22:26:29.984Z,4.50
2019-01-21T22:28:56.775Z,7.30
2019-01-21T22:31:23.618Z,7.87
2019-01-21T22:33:50.426Z,5.30
2019-01-21T22:36:17.205Z,8.30
2019-01-21T22:38:46.372Z,5.57
2019-01-21T22:41:13.279Z,4.73
2019-01-21T22:43:41.749Z,6.80
2019-01-21T22:46:09.477Z,10.10
2019-01-21T22:48:36.469Z,3.97
2019-01-21T22:51:03.267Z,11.73
2019-01-21T22:53:30.035Z,9.63
2019-01-21T22:55:56.873Z,7.90
2019-01-21T22:58:23.658Z,4.87
2019-01-21T23:00:53.966Z,11.00
2019-01-21T23:03:20.874Z,9.73
2019-01-21T23:05:47.838Z,5.93
2019-01-21T23:08:14.766Z,5.63
2019-01-21T23:10:41.594Z,9.13
2019-01-21T23:13:08.443Z,14.30
2019-01-21T23:15:35.426Z,17.00
2019-01-21T23:18:04.317Z,6.00
2019-01-21T23:20:30.851Z,9.97
2019-01-21T23:22:57.629Z,10.47
2019-01-21T23:25:24.674Z,7.33
2019-01-21T23:27:52.579Z,6.63
2019-01-21T23:30:19.711Z,8.17
2019-01-21T23:32:46.506Z,5.60
2019-01-21T23:35:13.320Z,6.23
2019-01-21T23:37:40.163Z,6.30
2019-01-21T23:40:07.678Z,5.77
2019-01-21T23:42:34.452Z,5.97
2019-01-21T23:45:01.289Z,8.93
2019-01-21T23:47:28.060Z,5.30
2019-01-21T23:49:55.011Z,6.20
2019-01-21T23:52:21.827Z,6.50
2019-01-21T23:54:48.595Z,5.77
2019-01-21T23:57:15.415Z,8.03
2019-01-21T23:59:42.206Z,8.37
